sensor_id;sensor_type;location;lat;lon;timestamp;P1;durP1;ratioP1;P2;durP2;ratioP2
58896;SDS011;44677;52.378;10.400;2023-07-08T07:52:16;8.10;;;4.90;;
58896;SDS011;44677;52.378;10.400;2023-07-08T07:54:48;7.90;;;4.60;;
58896;SDS011;44677;52.378;10.400;2023-07-08T07:57:13;5.20;;;4.70;;
58896;SDS011;44677;52.378;10.400;2023-07-08T07:59:38;4.90;;;4.40;;
58896;SDS011;44677;52.378;10.400;2023-07-08T08:02:04;4.60;;;4.20;;
58896;SDS011;44677;52.378;10.400;2023-07-08T08:04:29;5.10;;;4.30;;
58896;SDS011;44677;52.378;10.400;2023-07-08T16:05:56;6.00;;;4.30;;
58896;SDS011;44677;52.378;10.400;2023-07-08T16:08:23;7.00;;;4.30;;
58896;SDS011;44677;52.378;10.400;2023-07-08T16:10:56;5.20;;;3.90;;
58896;SDS011;44677;52.378;10.400;2023-07-08T16:13:23;5.90;;;4.60;;
58896;SDS011;44677;52.378;10.400;2023-07-08T16:15:51;4.60;;;4.20;;
58896;SDS011;44677;52.378;10.400;2023-07-08T16:18:16;5.10;;;4.40;;
58896;SDS011;44677;52.378;10.400;2023-07-08T16:20:42;5.60;;;4.10;;
58896;SDS011;44677;52.378;10.400;2023-07-08T16:23:07;4.70;;;4.30;;
58896;SDS011;44677;52.378;10.400;2023-07-08T16:25:35;4.90;;;4.40;;
58896;SDS011;44677;52.378;10.400;2023-07-08T16:28:03;5.10;;;4.60;;
58896;SDS011;44677;52.378;10.400;2023-07-08T16:30:31;5.60;;;4.40;;
58896;SDS011;44677;52.378;10.400;2023-07-08T16:32:57;4.70;;;4.10;;
58896;SDS011;44677;52.378;10.400;2023-07-08T16:35:22;4.50;;;4.10;;
58896;SDS011;44677;52.378;10.400;2023-07-08T16:40:18;5.80;;;4.70;;
58896;SDS011;44677;52.378;10.400;2023-07-08T16:42:47;4.80;;;4.30;;
58896;SDS011;44677;52.378;10.400;2023-07-08T16:45:14;4.70;;;3.90;;
58896;SDS011;44677;52.378;10.400;2023-07-08T16:47:43;4.50;;;4.10;;
58896;SDS011;44677;52.378;10.400;2023-07-08T16:50:10;5.00;;;4.40;;
58896;SDS011;44677;52.378;10.400;2023-07-08T16:52:36;6.60;;;4.10;;
58896;SDS011;44677;52.378;10.400;2023-07-08T16:55:13;5.50;;;4.40;;
58896;SDS011;44677;52.378;10.400;2023-07-08T16:57:40;4.70;;;4.30;;
58896;SDS011;44677;52.378;10.400;2023-07-08T17:02:32;4.10;;;3.70;;
58896;SDS011;44677;52.378;10.400;2023-07-08T17:04:58;4.60;;;4.20;;
58896;SDS011;44677;52.378;10.400;2023-07-08T17:07:23;7.10;;;4.30;;
58896;SDS011;44677;52.378;10.400;2023-07-08T17:09:49;4.70;;;4.30;;
58896;SDS011;44677;52.378;10.400;2023-07-08T17:12:14;5.30;;;4.50;;
58896;SDS011;44677;52.378;10.400;2023-07-08T17:14:39;4.50;;;4.00;;
58896;SDS011;44677;52.378;10.400;2023-07-08T17:17:06;6.20;;;4.70;;
58896;SDS011;44677;52.378;10.400;2023-07-08T17:19:35;5.80;;;4.40;;
58896;SDS011;44677;52.378;10.400;2023-07-08T17:22:01;5.90;;;4.60;;
58896;SDS011;44677;52.378;10.400;2023-07-08T17:24:26;5.20;;;4.10;;
58896;SDS011;44677;52.378;10.400;2023-07-08T17:26:51;5.60;;;4.20;;
58896;SDS011;44677;52.378;10.400;2023-07-08T17:29:17;4.80;;;4.40;;
58896;SDS011;44677;52.378;10.400;2023-07-08T17:31:43;5.20;;;4.40;;
58896;SDS011;44677;52.378;10.400;2023-07-08T17:34:22;5.10;;;4.50;;
58896;SDS011;44677;52.378;10.400;2023-07-08T17:36:49;4.30;;;3.90;;
58896;SDS011;44677;52.378;10.400;2023-07-08T17:39:15;7.10;;;4.40;;
58896;SDS011;44677;52.378;10.400;2023-07-08T17:41:40;5.20;;;4.60;;
58896;SDS011;44677;52.378;10.400;2023-07-08T17:44:06;5.20;;;4.40;;
58896;SDS011;44677;52.378;10.400;2023-07-08T17:46:32;4.70;;;4.30;;
58896;SDS011;44677;52.378;10.400;2023-07-08T17:48:58;5.70;;;4.20;;
58896;SDS011;44677;52.378;10.400;2023-07-08T17:51:25;5.70;;;4.00;;
58896;SDS011;44677;52.378;10.400;2023-07-08T17:53:51;5.40;;;4.30;;
58896;SDS011;44677;52.378;10.400;2023-07-08T17:56:36;4.70;;;4.10;;
58896;SDS011;44677;52.378;10.400;2023-07-08T17:59:04;4.60;;;4.20;;
58896;SDS011;44677;52.378;10.400;2023-07-08T18:01:31;4.60;;;4.00;;
58896;SDS011;44677;52.378;10.400;2023-07-08T18:03:57;6.20;;;4.70;;
58896;SDS011;44677;52.378;10.400;2023-07-08T18:06:22;7.10;;;4.40;;
58896;SDS011;44677;52.378;10.400;2023-07-08T18:08:48;17.60;;;5.30;;
58896;SDS011;44677;52.378;10.400;2023-07-08T18:11:16;12.40;;;5.60;;
58896;SDS011;44677;52.378;10.400;2023-07-08T18:13:43;8.20;;;4.00;;
58896;SDS011;44677;52.378;10.400;2023-07-08T18:16:13;6.70;;;4.40;;
58896;SDS011;44677;52.378;10.400;2023-07-08T18:18:40;8.60;;;4.40;;
58896;SDS011;44677;52.378;10.400;2023-07-08T18:21:16;8.80;;;4.50;;
58896;SDS011;44677;52.378;10.400;2023-07-08T18:23:46;4.90;;;4.40;;
58896;SDS011;44677;52.378;10.400;2023-07-08T18:26:17;5.90;;;4.40;;
58896;SDS011;44677;52.378;10.400;2023-07-08T18:28:53;8.90;;;5.10;;
58896;SDS011;44677;52.378;10.400;2023-07-08T18:33:55;7.40;;;4.60;;
58896;SDS011;44677;52.378;10.400;2023-07-08T18:36:21;7.60;;;4.80;;
58896;SDS011;44677;52.378;10.400;2023-07-08T18:38:47;6.10;;;4.50;;
58896;SDS011;44677;52.378;10.400;2023-07-08T18:41:13;6.20;;;5.10;;
58896;SDS011;44677;52.378;10.400;2023-07-08T18:43:42;6.70;;;4.40;;
58896;SDS011;44677;52.378;10.400;2023-07-08T18:46:09;7.40;;;4.40;;
58896;SDS011;44677;52.378;10.400;2023-07-08T18:48:36;7.10;;;4.30;;
58896;SDS011;44677;52.378;10.400;2023-07-08T18:51:04;5.00;;;4.60;;
58896;SDS011;44677;52.378;10.400;2023-07-08T18:53:48;5.60;;;4.70;;
58896;SDS011;44677;52.378;10.400;2023-07-08T18:56:17;4.80;;;4.30;;
58896;SDS011;44677;52.378;10.400;2023-07-08T18:58:43;5.10;;;4.20;;
58896;SDS011;44677;52.378;10.400;2023-07-08T19:01:22;4.80;;;4.20;;
58896;SDS011;44677;52.378;10.400;2023-07-08T19:03:52;6.20;;;4.50;;
58896;SDS011;44677;52.378;10.400;2023-07-08T19:06:18;4.80;;;4.30;;
58896;SDS011;44677;52.378;10.400;2023-07-08T19:08:44;6.00;;;4.50;;
58896;SDS011;44677;52.378;10.400;2023-07-08T19:11:17;5.60;;;4.90;;
58896;SDS011;44677;52.378;10.400;2023-07-08T19:13:44;9.30;;;4.60;;
58896;SDS011;44677;52.378;10.400;2023-07-08T19:16:11;8.60;;;4.60;;
58896;SDS011;44677;52.378;10.400;2023-07-08T19:18:37;5.50;;;4.30;;
58896;SDS011;44677;52.378;10.400;2023-07-08T19:23:29;5.30;;;4.80;;
58896;SDS011;44677;52.378;10.400;2023-07-08T19:25:54;5.40;;;4.80;;
58896;SDS011;44677;52.378;10.400;2023-07-08T19:28:21;7.60;;;4.70;;
58896;SDS011;44677;52.378;10.400;2023-07-08T19:30:50;8.00;;;4.50;;
58896;SDS011;44677;52.378;10.400;2023-07-08T19:33:16;4.70;;;4.30;;
58896;SDS011;44677;52.378;10.400;2023-07-08T19:35:43;6.30;;;4.70;;
58896;SDS011;44677;52.378;10.400;2023-07-08T19:38:10;5.10;;;4.60;;
58896;SDS011;44677;52.378;10.400;2023-07-08T19:40:40;7.20;;;5.10;;
58896;SDS011;44677;52.378;10.400;2023-07-08T19:43:10;7.70;;;4.90;;
58896;SDS011;44677;52.378;10.400;2023-07-08T19:45:38;6.40;;;5.00;;
58896;SDS011;44677;52.378;10.400;2023-07-08T19:48:04;9.30;;;5.00;;
58896;SDS011;44677;52.378;10.400;2023-07-08T19:50:30;9.70;;;5.00;;
58896;SDS011;44677;52.378;10.400;2023-07-08T19:52:55;5.10;;;4.50;;
58896;SDS011;44677;52.378;10.400;2023-07-08T19:55:21;9.00;;;4.60;;
58896;SDS011;44677;52.378;10.400;2023-07-08T19:57:50;7.10;;;4.70;;
58896;SDS011;44677;52.378;10.400;2023-07-08T20:00:27;6.30;;;4.70;;
58896;SDS011;44677;52.378;10.400;2023-07-08T20:02:56;9.70;;;5.20;;
58896;SDS011;44677;52.378;10.400;2023-07-08T20:05:24;5.80;;;4.60;;
58896;SDS011;44677;52.378;10.400;2023-07-08T20:07:53;5.90;;;4.80;;
58896;SDS011;44677;52.378;10.400;2023-07-08T20:10:20;9.40;;;4.50;;
58896;SDS011;44677;52.378;10.400;2023-07-08T20:12:45;6.30;;;4.80;;
58896;SDS011;44677;52.378;10.400;2023-07-08T20:15:11;6.40;;;4.90;;
58896;SDS011;44677;52.378;10.400;2023-07-08T20:17:37;11.80;;;5.50;;
58896;SDS011;44677;52.378;10.400;2023-07-08T20:20:05;6.90;;;5.30;;
58896;SDS011;44677;52.378;10.400;2023-07-08T20:22:41;6.80;;;5.30;;
58896;SDS011;44677;52.378;10.400;2023-07-08T20:25:10;10.10;;;5.60;;
58896;SDS011;44677;52.378;10.400;2023-07-08T20:27:37;7.50;;;5.00;;
58896;SDS011;44677;52.378;10.400;2023-07-08T20:30:02;6.20;;;5.60;;
58896;SDS011;44677;52.378;10.400;2023-07-08T20:32:51;6.70;;;5.50;;
58896;SDS011;44677;52.378;10.400;2023-07-08T20:35:17;6.00;;;5.00;;
58896;SDS011;44677;52.378;10.400;2023-07-08T20:37:44;6.80;;;5.20;;
58896;SDS011;44677;52.378;10.400;2023-07-08T20:40:16;7.60;;;5.50;;
58896;SDS011;44677;52.378;10.400;2023-07-08T20:42:46;7.00;;;6.10;;
58896;SDS011;44677;52.378;10.400;2023-07-08T20:45:12;7.50;;;6.00;;
58896;SDS011;44677;52.378;10.400;2023-07-08T20:50:17;10.30;;;7.10;;
58896;SDS011;44677;52.378;10.400;2023-07-08T20:52:44;8.80;;;6.70;;
58896;SDS011;44677;52.378;10.400;2023-07-08T20:55:11;7.70;;;6.10;;
58896;SDS011;44677;52.378;10.400;2023-07-08T20:57:37;11.80;;;5.90;;
58896;SDS011;44677;52.378;10.400;2023-07-08T21:00:02;6.80;;;5.80;;
58896;SDS011;44677;52.378;10.400;2023-07-08T21:02:28;9.40;;;6.10;;
58896;SDS011;44677;52.378;10.400;2023-07-08T21:04:54;10.40;;;5.70;;
58896;SDS011;44677;52.378;10.400;2023-07-08T21:07:19;10.40;;;5.70;;
58896;SDS011;44677;52.378;10.400;2023-07-08T21:09:48;10.00;;;5.90;;
58896;SDS011;44677;52.378;10.400;2023-07-08T21:12:13;8.10;;;5.50;;
58896;SDS011;44677;52.378;10.400;2023-07-08T21:14:39;6.10;;;5.40;;
58896;SDS011;44677;52.378;10.400;2023-07-08T21:17:07;12.40;;;6.30;;
58896;SDS011;44677;52.378;10.400;2023-07-08T21:19:39;10.20;;;6.80;;
58896;SDS011;44677;52.378;10.400;2023-07-08T21:22:05;8.20;;;5.50;;
58896;SDS011;44677;52.378;10.400;2023-07-08T21:24:30;9.40;;;5.80;;
58896;SDS011;44677;52.378;10.400;2023-07-08T21:26:55;9.80;;;6.10;;
58896;SDS011;44677;52.378;10.400;2023-07-08T21:29:21;10.10;;;5.80;;
58896;SDS011;44677;52.378;10.400;2023-07-08T21:31:48;9.60;;;6.10;;
58896;SDS011;44677;52.378;10.400;2023-07-08T21:34:13;11.00;;;6.80;;
58896;SDS011;44677;52.378;10.400;2023-07-08T21:36:39;8.90;;;6.50;;
58896;SDS011;44677;52.378;10.400;2023-07-08T21:39:15;9.50;;;5.90;;
58896;SDS011;44677;52.378;10.400;2023-07-08T21:41:52;8.20;;;5.40;;
58896;SDS011;44677;52.378;10.400;2023-07-08T21:44:17;7.10;;;5.70;;
58896;SDS011;44677;52.378;10.400;2023-07-08T21:46:43;8.00;;;5.60;;
58896;SDS011;44677;52.378;10.400;2023-07-08T21:49:08;6.30;;;5.40;;
58896;SDS011;44677;52.378;10.400;2023-07-08T21:51:34;7.70;;;5.20;;
58896;SDS011;44677;52.378;10.400;2023-07-08T21:54:00;6.90;;;5.20;;
58896;SDS011;44677;52.378;10.400;2023-07-08T21:56:27;8.20;;;5.60;;
58896;SDS011;44677;52.378;10.400;2023-07-08T21:58:53;8.40;;;5.00;;
58896;SDS011;44677;52.378;10.400;2023-07-08T22:01:20;7.60;;;5.00;;
58896;SDS011;44677;52.378;10.400;2023-07-08T22:03:46;7.60;;;5.00;;
58896;SDS011;44677;52.378;10.400;2023-07-08T22:06:13;7.80;;;4.90;;
58896;SDS011;44677;52.378;10.400;2023-07-08T22:11:13;6.20;;;5.30;;
58896;SDS011;44677;52.378;10.400;2023-07-08T22:13:43;6.90;;;5.00;;
58896;SDS011;44677;52.378;10.400;2023-07-08T22:16:14;6.90;;;5.20;;
58896;SDS011;44677;52.378;10.400;2023-07-08T22:18:41;6.00;;;5.10;;
58896;SDS011;44677;52.378;10.400;2023-07-08T22:21:19;4.90;;;4.50;;
58896;SDS011;44677;52.378;10.400;2023-07-08T22:23:46;5.60;;;5.00;;
58896;SDS011;44677;52.378;10.400;2023-07-08T22:26:13;6.20;;;4.60;;
58896;SDS011;44677;52.378;10.400;2023-07-08T22:28:39;6.00;;;4.80;;
58896;SDS011;44677;52.378;10.400;2023-07-08T22:31:05;6.30;;;5.20;;
58896;SDS011;44677;52.378;10.400;2023-07-08T22:33:47;8.60;;;5.00;;
58896;SDS011;44677;52.378;10.400;2023-07-08T22:36:13;6.10;;;5.00;;
58896;SDS011;44677;52.378;10.400;2023-07-08T22:38:38;9.20;;;5.60;;
58896;SDS011;44677;52.378;10.400;2023-07-08T22:41:04;9.00;;;5.20;;
58896;SDS011;44677;52.378;10.400;2023-07-08T22:43:33;5.70;;;4.50;;
58896;SDS011;44677;52.378;10.400;2023-07-08T22:45:59;5.30;;;4.80;;
58896;SDS011;44677;52.378;10.400;2023-07-08T22:48:24;6.70;;;5.00;;
58896;SDS011;44677;52.378;10.400;2023-07-08T22:50:50;9.80;;;4.80;;
58896;SDS011;44677;52.378;10.400;2023-07-08T22:53:21;5.90;;;4.70;;
58896;SDS011;44677;52.378;10.400;2023-07-08T22:55:47;5.70;;;5.10;;
58896;SDS011;44677;52.378;10.400;2023-07-08T22:58:16;5.70;;;4.90;;
58896;SDS011;44677;52.378;10.400;2023-07-08T23:00:46;8.10;;;5.20;;
58896;SDS011;44677;52.378;10.400;2023-07-08T23:03:12;4.80;;;4.40;;
58896;SDS011;44677;52.378;10.400;2023-07-08T23:05:37;5.70;;;4.90;;
58896;SDS011;44677;52.378;10.400;2023-07-08T23:10:29;6.50;;;4.60;;
58896;SDS011;44677;52.378;10.400;2023-07-08T23:12:55;6.00;;;4.80;;
58896;SDS011;44677;52.378;10.400;2023-07-08T23:15:20;5.50;;;5.00;;
58896;SDS011;44677;52.378;10.400;2023-07-08T23:17:46;10.10;;;4.60;;
58896;SDS011;44677;52.378;10.400;2023-07-08T23:20:15;5.60;;;4.60;;
58896;SDS011;44677;52.378;10.400;2023-07-08T23:22:43;5.40;;;4.90;;
58896;SDS011;44677;52.378;10.400;2023-07-08T23:25:09;5.70;;;4.70;;
58896;SDS011;44677;52.378;10.400;2023-07-08T23:27:35;6.70;;;5.30;;
58896;SDS011;44677;52.378;10.400;2023-07-08T23:30:03;5.10;;;4.70;;
58896;SDS011;44677;52.378;10.400;2023-07-08T23:32:29;5.50;;;4.50;;
58896;SDS011;44677;52.378;10.400;2023-07-08T23:34:54;5.20;;;4.80;;
58896;SDS011;44677;52.378;10.400;2023-07-08T23:37:20;6.20;;;5.30;;
58896;SDS011;44677;52.378;10.400;2023-07-08T23:39:49;5.50;;;5.00;;
58896;SDS011;44677;52.378;10.400;2023-07-08T23:42:15;5.30;;;4.50;;
58896;SDS011;44677;52.378;10.400;2023-07-08T23:44:42;7.50;;;4.70;;
58896;SDS011;44677;52.378;10.400;2023-07-08T23:47:09;6.10;;;4.90;;
58896;SDS011;44677;52.378;10.400;2023-07-08T23:49:46;6.10;;;4.60;;
58896;SDS011;44677;52.378;10.400;2023-07-08T23:52:13;4.60;;;4.20;;
58896;SDS011;44677;52.378;10.400;2023-07-08T23:54:39;5.00;;;4.60;;
58896;SDS011;44677;52.378;10.400;2023-07-08T23:57:06;7.40;;;4.80;;
58896;SDS011;44677;52.378;10.400;2023-07-08T23:59:39;5.00;;;4.50;;
